| Date | Time | Temp. (oF) | Dew Point (oF) | Rel. Hum. (%) | Press. (in.) | Wind Dir. (deg.) | Wind Speed (mph) | Hourly Rainfall (i n.) |
|
|---|---|---|---|---|---|---|---|---|---|
| 1 | 09/11 | 24:00 | 66 | 58 | 77 | 30.08 | 270 | 1 | 0.00 |
| 2 | 09/10 | 23:00 | 67 | 60 | 79 | 30.08 | 270 | 0 | 0.00 |
| 3 | 09/10 | 22:00 | 69 | 58 | 70 | 30.06 | 270 | 0 | 0.00 |
| 4 | 09/10 | 21:00 | 71 | 58 | 64 | 30.05 | 270 | 0 | 0.00 |
| 5 | 09/10 | 20:00 | 73 | 58 | 60 | 30.03 | 270 | 1 | 0.00 |
| 6 | 09/10 | 19:00 | 75 | 59 | 58 | 30.03 | 270 | 1 | 0.00 |
| 7 | 09/10 | 18:00 | 78 | 60 | 55 | 30.03 | 290 | 2 | 0.00 |
| 8 | 09/10 | 17:00 | 79 | 59 | 52 | 30.01 | 330 | 6 | 0.00 |
| 9 | 09/10 | 16:00 | 79 | 58 | 50 | 30.00 | 270 | 7 | 0.00 |
| 10 | 09/10 | 15:00 | 78 | 61 | 58 | 29.98 | 70 | 2 | 0.00 |
| 11 | 09/10 | 14:00 | 77 | 64 | 65 | 29.98 | 10 | 4 | 0.00 |
| 12 | 09/10 | 13:00 | 77 | 68 | 74 | 29.99 | 290 | 6 | 0.00 |
| 13 | 09/10 | 12:00 | 75 | 68 | 80 | 30.00 | 10 | 4 | 0.00 |
| 14 | 09/10 | 11:00 | 73 | 68 | 87 | 30.01 | 330 | 2 | 0.00 |
| 15 | 09/10 | 10:00 | 71 | 69 | 94 | 30.02 | 290 | 1 | 0.00 |
| 16 | 09/10 | 09:00 | 69 | 67 | 95 | 30.01 | 290 | 0 | 0.00 |
| 17 | 09/10 | 08:00 | 69 | 67 | 96 | 30.01 | 300 | 2 | 0.00 |
| 18 | 09/10 | 07:00 | 69 | 67 | 96 | 30.00 | 300 | 0 | 0.00 |
| 19 | 09/10 | 06:00 | 69 | 67 | 96 | 29.99 | 300 | 0 | 0.00 |
| 20 | 09/10 | 05:00 | 68 | 66 | 96 | 29.99 | 300 | 1 | 0.00 |
| 21 | 09/10 | 04:00 | 68 | 66 | 96 | 30.01 | 300 | 0 | 0.03 |
| 22 | 09/10 | 03:00 | 69 | 67 | 95 | 30.02 | 300 | 0 | 0.00 |
| 23 | 09/10 | 02:00 | 69 | 67 | 95 | 30.04 | 300 | 0 | 0.00 |
| 24 | 09/10 | 01:00 | 69 | 67 | 95 | 30.01 | 300 | 1 | 0.00 |